sensor_id;sensor_type;location;lat;lon;timestamp;P1;durP1;ratioP1;P2;durP2;ratioP2
5989;SDS011;14149;53.562;10.032;2022-11-12T00:00:26;28.30;;;13.60;;
5989;SDS011;14149;53.562;10.032;2022-11-12T00:02:52;20.80;;;12.37;;
5989;SDS011;14149;53.562;10.032;2022-11-12T00:05:18;24.17;;;13.60;;
5989;SDS011;14149;53.562;10.032;2022-11-12T00:07:44;26.17;;;13.77;;
5989;SDS011;14149;53.562;10.032;2022-11-12T00:10:10;20.10;;;12.30;;
5989;SDS011;14149;53.562;10.032;2022-11-12T00:12:36;25.10;;;13.97;;
5989;SDS011;14149;53.562;10.032;2022-11-12T00:15:02;25.77;;;13.90;;
5989;SDS011;14149;53.562;10.032;2022-11-12T00:17:28;27.40;;;14.30;;
5989;SDS011;14149;53.562;10.032;2022-11-12T00:19:54;23.77;;;13.23;;
5989;SDS011;14149;53.562;10.032;2022-11-12T00:22:21;26.50;;;13.60;;
5989;SDS011;14149;53.562;10.032;2022-11-12T00:24:47;25.90;;;13.10;;
5989;SDS011;14149;53.562;10.032;2022-11-12T00:27:13;24.30;;;14.30;;
5989;SDS011;14149;53.562;10.032;2022-11-12T00:29:39;23.23;;;13.40;;
5989;SDS011;14149;53.562;10.032;2022-11-12T00:32:06;24.23;;;14.57;;
5989;SDS011;14149;53.562;10.032;2022-11-12T00:34:32;25.07;;;14.07;;
5989;SDS011;14149;53.562;10.032;2022-11-12T00:36:58;22.43;;;12.60;;
5989;SDS011;14149;53.562;10.032;2022-11-12T00:39:25;25.13;;;11.33;;
5989;SDS011;14149;53.562;10.032;2022-11-12T00:41:51;17.80;;;10.90;;
5989;SDS011;14149;53.562;10.032;2022-11-12T00:44:17;23.80;;;12.47;;
5989;SDS011;14149;53.562;10.032;2022-11-12T00:46:43;23.70;;;13.10;;
5989;SDS011;14149;53.562;10.032;2022-11-12T00:49:10;25.57;;;12.17;;
5989;SDS011;14149;53.562;10.032;2022-11-12T00:51:36;25.00;;;12.20;;
5989;SDS011;14149;53.562;10.032;2022-11-12T00:54:02;22.27;;;12.47;;
5989;SDS011;14149;53.562;10.032;2022-11-12T00:56:28;21.97;;;12.63;;
5989;SDS011;14149;53.562;10.032;2022-11-12T00:58:54;25.77;;;11.50;;
5989;SDS011;14149;53.562;10.032;2022-11-12T01:01:21;25.70;;;11.83;;
5989;SDS011;14149;53.562;10.032;2022-11-12T01:03:47;23.43;;;11.17;;
5989;SDS011;14149;53.562;10.032;2022-11-12T01:06:14;17.00;;;9.80;;
5989;SDS011;14149;53.562;10.032;2022-11-12T01:08:41;22.20;;;10.47;;
5989;SDS011;14149;53.562;10.032;2022-11-12T01:11:12;18.93;;;10.50;;
5989;SDS011;14149;53.562;10.032;2022-11-12T01:13:40;19.90;;;11.00;;
5989;SDS011;14149;53.562;10.032;2022-11-12T01:16:16;20.13;;;12.03;;
5989;SDS011;14149;53.562;10.032;2022-11-12T01:18:44;19.37;;;10.80;;
5989;SDS011;14149;53.562;10.032;2022-11-12T01:21:10;18.37;;;9.70;;
5989;SDS011;14149;53.562;10.032;2022-11-12T01:23:37;18.73;;;10.07;;
5989;SDS011;14149;53.562;10.032;2022-11-12T01:26:04;21.80;;;12.60;;
5989;SDS011;14149;53.562;10.032;2022-11-12T01:28:30;16.83;;;10.70;;
5989;SDS011;14149;53.562;10.032;2022-11-12T01:30:57;20.27;;;11.10;;
5989;SDS011;14149;53.562;10.032;2022-11-12T01:33:23;19.40;;;11.30;;
5989;SDS011;14149;53.562;10.032;2022-11-12T01:35:49;19.80;;;10.10;;
5989;SDS011;14149;53.562;10.032;2022-11-12T01:38:15;19.93;;;10.50;;
5989;SDS011;14149;53.562;10.032;2022-11-12T01:40:41;21.67;;;10.53;;
5989;SDS011;14149;53.562;10.032;2022-11-12T01:43:10;18.97;;;10.53;;
5989;SDS011;14149;53.562;10.032;2022-11-12T01:45:41;22.77;;;11.00;;
5989;SDS011;14149;53.562;10.032;2022-11-12T01:48:23;18.57;;;10.20;;
5989;SDS011;14149;53.562;10.032;2022-11-12T01:50:51;17.53;;;10.63;;
5989;SDS011;14149;53.562;10.032;2022-11-12T01:53:17;17.27;;;10.10;;
5989;SDS011;14149;53.562;10.032;2022-11-12T01:55:44;20.10;;;10.50;;
5989;SDS011;14149;53.562;10.032;2022-11-12T01:58:11;18.07;;;10.13;;
5989;SDS011;14149;53.562;10.032;2022-11-12T02:00:39;19.30;;;10.20;;
5989;SDS011;14149;53.562;10.032;2022-11-12T02:03:06;20.53;;;10.70;;
5989;SDS011;14149;53.562;10.032;2022-11-12T02:05:35;20.17;;;10.90;;
5989;SDS011;14149;53.562;10.032;2022-11-12T02:08:02;21.97;;;10.50;;
5989;SDS011;14149;53.562;10.032;2022-11-12T02:10:29;23.67;;;11.60;;
5989;SDS011;14149;53.562;10.032;2022-11-12T02:12:56;17.20;;;11.13;;
5989;SDS011;14149;53.562;10.032;2022-11-12T02:15:41;25.70;;;11.33;;
5989;SDS011;14149;53.562;10.032;2022-11-12T02:18:07;19.23;;;10.83;;
5989;SDS011;14149;53.562;10.032;2022-11-12T02:20:34;21.57;;;10.40;;
5989;SDS011;14149;53.562;10.032;2022-11-12T02:23:01;17.10;;;11.60;;
5989;SDS011;14149;53.562;10.032;2022-11-12T02:25:27;19.30;;;10.80;;
5989;SDS011;14149;53.562;10.032;2022-11-12T02:27:54;21.17;;;11.60;;
5989;SDS011;14149;53.562;10.032;2022-11-12T02:30:40;18.70;;;10.33;;
5989;SDS011;14149;53.562;10.032;2022-11-12T02:33:06;20.27;;;11.50;;
5989;SDS011;14149;53.562;10.032;2022-11-12T02:35:33;19.27;;;11.57;;
5989;SDS011;14149;53.562;10.032;2022-11-12T02:37:59;19.13;;;11.10;;
5989;SDS011;14149;53.562;10.032;2022-11-12T02:40:25;19.80;;;10.33;;
5989;SDS011;14149;53.562;10.032;2022-11-12T02:42:51;24.37;;;12.23;;
5989;SDS011;14149;53.562;10.032;2022-11-12T02:45:17;24.50;;;12.00;;
5989;SDS011;14149;53.562;10.032;2022-11-12T02:47:43;18.53;;;10.23;;
5989;SDS011;14149;53.562;10.032;2022-11-12T02:50:10;18.80;;;11.53;;
5989;SDS011;14149;53.562;10.032;2022-11-12T02:52:36;20.00;;;11.17;;
5989;SDS011;14149;53.562;10.032;2022-11-12T02:55:04;19.33;;;12.20;;
5989;SDS011;14149;53.562;10.032;2022-11-12T02:57:30;17.00;;;10.00;;
5989;SDS011;14149;53.562;10.032;2022-11-12T02:59:57;17.50;;;11.00;;
5989;SDS011;14149;53.562;10.032;2022-11-12T03:02:23;19.43;;;10.77;;
5989;SDS011;14149;53.562;10.032;2022-11-12T03:04:49;17.80;;;11.13;;
5989;SDS011;14149;53.562;10.032;2022-11-12T03:07:15;18.10;;;10.13;;
5989;SDS011;14149;53.562;10.032;2022-11-12T03:09:41;17.93;;;11.17;;
5989;SDS011;14149;53.562;10.032;2022-11-12T03:12:07;19.13;;;10.33;;
5989;SDS011;14149;53.562;10.032;2022-11-12T03:14:33;17.90;;;11.00;;
5989;SDS011;14149;53.562;10.032;2022-11-12T03:16:59;17.57;;;10.10;;
5989;SDS011;14149;53.562;10.032;2022-11-12T03:19:25;18.10;;;10.70;;
5989;SDS011;14149;53.562;10.032;2022-11-12T03:21:51;17.50;;;10.70;;
5989;SDS011;14149;53.562;10.032;2022-11-12T03:24:17;22.23;;;11.33;;
5989;SDS011;14149;53.562;10.032;2022-11-12T03:26:43;20.83;;;10.53;;
5989;SDS011;14149;53.562;10.032;2022-11-12T03:29:10;20.03;;;11.20;;
5989;SDS011;14149;53.562;10.032;2022-11-12T03:31:36;22.77;;;12.10;;
5989;SDS011;14149;53.562;10.032;2022-11-12T03:34:02;21.60;;;10.27;;
5989;SDS011;14149;53.562;10.032;2022-11-12T03:36:28;19.43;;;10.50;;
5989;SDS011;14149;53.562;10.032;2022-11-12T03:38:54;19.07;;;10.60;;
5989;SDS011;14149;53.562;10.032;2022-11-12T03:41:20;20.40;;;10.80;;
5989;SDS011;14149;53.562;10.032;2022-11-12T03:43:46;18.27;;;10.77;;
5989;SDS011;14149;53.562;10.032;2022-11-12T03:46:12;18.10;;;10.30;;
5989;SDS011;14149;53.562;10.032;2022-11-12T03:48:38;21.40;;;11.70;;
5989;SDS011;14149;53.562;10.032;2022-11-12T03:51:05;16.73;;;10.27;;
5989;SDS011;14149;53.562;10.032;2022-11-12T03:53:31;15.47;;;10.87;;
5989;SDS011;14149;53.562;10.032;2022-11-12T03:55:57;20.07;;;11.80;;
5989;SDS011;14149;53.562;10.032;2022-11-12T03:58:23;21.97;;;9.93;;
5989;SDS011;14149;53.562;10.032;2022-11-12T04:00:49;17.80;;;10.67;;
5989;SDS011;14149;53.562;10.032;2022-11-12T04:03:15;21.47;;;10.47;;
5989;SDS011;14149;53.562;10.032;2022-11-12T04:05:41;20.63;;;10.80;;
5989;SDS011;14149;53.562;10.032;2022-11-12T04:08:26;16.20;;;9.40;;
5989;SDS011;14149;53.562;10.032;2022-11-12T04:11:02;16.90;;;10.47;;
5989;SDS011;14149;53.562;10.032;2022-11-12T04:13:28;16.40;;;10.07;;
5989;SDS011;14149;53.562;10.032;2022-11-12T04:18:42;19.40;;;11.43;;
5989;SDS011;14149;53.562;10.032;2022-11-12T04:21:29;19.40;;;10.70;;
5989;SDS011;14149;53.562;10.032;2022-11-12T04:24:14;17.53;;;10.23;;
5989;SDS011;14149;53.562;10.032;2022-11-12T04:27:23;19.80;;;10.47;;
5989;SDS011;14149;53.562;10.032;2022-11-12T04:29:50;19.53;;;11.27;;
5989;SDS011;14149;53.562;10.032;2022-11-12T04:32:35;17.90;;;10.47;;
5989;SDS011;14149;53.562;10.032;2022-11-12T04:35:02;23.70;;;11.50;;
5989;SDS011;14149;53.562;10.032;2022-11-12T04:37:29;18.60;;;10.80;;
5989;SDS011;14149;53.562;10.032;2022-11-12T04:40:11;16.80;;;10.50;;
5989;SDS011;14149;53.562;10.032;2022-11-12T04:42:57;20.47;;;12.60;;
5989;SDS011;14149;53.562;10.032;2022-11-12T04:45:42;21.03;;;10.87;;
5989;SDS011;14149;53.562;10.032;2022-11-12T04:48:09;22.10;;;12.27;;
5989;SDS011;14149;53.562;10.032;2022-11-12T04:50:36;23.97;;;10.80;;
5989;SDS011;14149;53.562;10.032;2022-11-12T04:53:03;21.73;;;11.73;;
5989;SDS011;14149;53.562;10.032;2022-11-12T04:55:30;21.60;;;11.37;;
5989;SDS011;14149;53.562;10.032;2022-11-12T04:57:56;21.30;;;11.73;;
5989;SDS011;14149;53.562;10.032;2022-11-12T05:00:22;21.67;;;11.50;;
5989;SDS011;14149;53.562;10.032;2022-11-12T05:02:49;18.73;;;11.10;;
5989;SDS011;14149;53.562;10.032;2022-11-12T05:05:15;21.47;;;11.23;;
5989;SDS011;14149;53.562;10.032;2022-11-12T05:07:41;18.30;;;11.60;;
5989;SDS011;14149;53.562;10.032;2022-11-12T05:10:07;24.10;;;12.30;;
5989;SDS011;14149;53.562;10.032;2022-11-12T05:12:33;21.40;;;12.00;;
5989;SDS011;14149;53.562;10.032;2022-11-12T05:15:00;22.23;;;11.77;;
5989;SDS011;14149;53.562;10.032;2022-11-12T05:17:26;21.03;;;11.73;;
5989;SDS011;14149;53.562;10.032;2022-11-12T05:19:52;18.47;;;11.23;;
5989;SDS011;14149;53.562;10.032;2022-11-12T05:22:19;19.37;;;11.13;;
5989;SDS011;14149;53.562;10.032;2022-11-12T05:24:45;22.00;;;12.70;;
5989;SDS011;14149;53.562;10.032;2022-11-12T05:27:15;23.30;;;12.63;;
5989;SDS011;14149;53.562;10.032;2022-11-12T05:29:41;23.63;;;11.30;;
5989;SDS011;14149;53.562;10.032;2022-11-12T05:32:08;19.20;;;11.70;;
5989;SDS011;14149;53.562;10.032;2022-11-12T05:34:35;20.30;;;12.27;;
5989;SDS011;14149;53.562;10.032;2022-11-12T05:37:01;22.23;;;12.00;;
5989;SDS011;14149;53.562;10.032;2022-11-12T05:39:28;20.67;;;11.77;;
5989;SDS011;14149;53.562;10.032;2022-11-12T05:41:54;21.23;;;12.27;;
5989;SDS011;14149;53.562;10.032;2022-11-12T05:44:20;19.37;;;12.17;;
5989;SDS011;14149;53.562;10.032;2022-11-12T05:46:46;27.57;;;13.33;;
5989;SDS011;14149;53.562;10.032;2022-11-12T05:49:13;29.00;;;12.73;;
5989;SDS011;14149;53.562;10.032;2022-11-12T05:51:39;21.73;;;13.00;;
5989;SDS011;14149;53.562;10.032;2022-11-12T05:54:05;19.60;;;11.03;;
5989;SDS011;14149;53.562;10.032;2022-11-12T05:56:31;24.93;;;11.70;;
5989;SDS011;14149;53.562;10.032;2022-11-12T05:58:57;26.10;;;13.27;;
5989;SDS011;14149;53.562;10.032;2022-11-12T06:01:23;20.43;;;12.67;;
5989;SDS011;14149;53.562;10.032;2022-11-12T06:03:50;18.30;;;12.60;;
5989;SDS011;14149;53.562;10.032;2022-11-12T06:06:16;21.13;;;12.67;;
5989;SDS011;14149;53.562;10.032;2022-11-12T06:08:42;20.23;;;11.33;;
5989;SDS011;14149;53.562;10.032;2022-11-12T06:11:08;21.97;;;12.10;;
5989;SDS011;14149;53.562;10.032;2022-11-12T06:13:34;23.37;;;13.10;;
5989;SDS011;14149;53.562;10.032;2022-11-12T06:16:00;23.43;;;12.27;;
5989;SDS011;14149;53.562;10.032;2022-11-12T06:18:26;25.90;;;12.73;;
5989;SDS011;14149;53.562;10.032;2022-11-12T06:20:52;23.73;;;10.97;;
5989;SDS011;14149;53.562;10.032;2022-11-12T06:23:37;26.83;;;13.00;;
5989;SDS011;14149;53.562;10.032;2022-11-12T06:26:03;23.23;;;13.47;;
5989;SDS011;14149;53.562;10.032;2022-11-12T06:28:32;20.00;;;11.90;;
5989;SDS011;14149;53.562;10.032;2022-11-12T06:30:58;19.70;;;11.73;;
5989;SDS011;14149;53.562;10.032;2022-11-12T06:33:24;20.23;;;12.40;;
5989;SDS011;14149;53.562;10.032;2022-11-12T06:36:00;20.97;;;11.70;;
5989;SDS011;14149;53.562;10.032;2022-11-12T06:38:30;22.87;;;13.27;;
5989;SDS011;14149;53.562;10.032;2022-11-12T06:40:56;23.50;;;12.17;;
5989;SDS011;14149;53.562;10.032;2022-11-12T06:43:23;25.43;;;13.17;;
5989;SDS011;14149;53.562;10.032;2022-11-12T06:45:49;25.47;;;12.47;;
5989;SDS011;14149;53.562;10.032;2022-11-12T06:48:15;27.40;;;13.13;;
5989;SDS011;14149;53.562;10.032;2022-11-12T06:50:41;19.00;;;11.90;;
5989;SDS011;14149;53.562;10.032;2022-11-12T06:53:08;21.93;;;12.27;;
5989;SDS011;14149;53.562;10.032;2022-11-12T06:55:34;20.63;;;12.33;;
5989;SDS011;14149;53.562;10.032;2022-11-12T06:58:00;25.57;;;14.07;;
5989;SDS011;14149;53.562;10.032;2022-11-12T07:00:26;23.00;;;13.47;;
5989;SDS011;14149;53.562;10.032;2022-11-12T07:02:52;21.47;;;13.50;;
5989;SDS011;14149;53.562;10.032;2022-11-12T07:05:18;23.17;;;12.80;;
5989;SDS011;14149;53.562;10.032;2022-11-12T07:07:44;22.90;;;13.77;;
5989;SDS011;14149;53.562;10.032;2022-11-12T07:10:10;21.13;;;13.40;;
5989;SDS011;14149;53.562;10.032;2022-11-12T07:12:36;20.77;;;11.37;;
5989;SDS011;14149;53.562;10.032;2022-11-12T07:15:02;22.47;;;12.50;;
5989;SDS011;14149;53.562;10.032;2022-11-12T07:17:29;27.93;;;12.53;;
5989;SDS011;14149;53.562;10.032;2022-11-12T07:19:55;18.80;;;12.77;;
5989;SDS011;14149;53.562;10.032;2022-11-12T07:22:21;24.37;;;13.07;;
5989;SDS011;14149;53.562;10.032;2022-11-12T07:24:47;19.77;;;11.70;;
5989;SDS011;14149;53.562;10.032;2022-11-12T07:27:13;17.60;;;11.60;;
5989;SDS011;14149;53.562;10.032;2022-11-12T07:29:40;20.37;;;11.83;;
5989;SDS011;14149;53.562;10.032;2022-11-12T07:32:06;20.47;;;12.17;;
5989;SDS011;14149;53.562;10.032;2022-11-12T07:34:32;19.87;;;11.17;;
5989;SDS011;14149;53.562;10.032;2022-11-12T07:36:58;21.17;;;11.10;;
5989;SDS011;14149;53.562;10.032;2022-11-12T07:39:24;20.20;;;11.50;;
5989;SDS011;14149;53.562;10.032;2022-11-12T07:41:50;22.53;;;11.63;;
5989;SDS011;14149;53.562;10.032;2022-11-12T07:44:16;17.17;;;10.67;;
5989;SDS011;14149;53.562;10.032;2022-11-12T07:46:42;19.20;;;11.67;;
5989;SDS011;14149;53.562;10.032;2022-11-12T07:49:08;18.97;;;10.73;;
5989;SDS011;14149;53.562;10.032;2022-11-12T07:51:34;24.73;;;11.33;;
5989;SDS011;14149;53.562;10.032;2022-11-12T07:54:01;21.37;;;12.17;;
5989;SDS011;14149;53.562;10.032;2022-11-12T07:56:28;21.87;;;12.37;;
5989;SDS011;14149;53.562;10.032;2022-11-12T07:58:54;22.07;;;12.70;;
5989;SDS011;14149;53.562;10.032;2022-11-12T08:01:27;21.37;;;12.13;;
5989;SDS011;14149;53.562;10.032;2022-11-12T08:03:53;19.60;;;11.40;;
5989;SDS011;14149;53.562;10.032;2022-11-12T08:06:19;24.13;;;12.63;;
5989;SDS011;14149;53.562;10.032;2022-11-12T08:08:45;17.93;;;10.70;;
5989;SDS011;14149;53.562;10.032;2022-11-12T08:11:11;17.43;;;10.70;;
5989;SDS011;14149;53.562;10.032;2022-11-12T08:13:37;25.13;;;11.30;;
5989;SDS011;14149;53.562;10.032;2022-11-12T08:16:04;20.83;;;11.57;;
5989;SDS011;14149;53.562;10.032;2022-11-12T08:18:30;21.73;;;9.63;;
5989;SDS011;14149;53.562;10.032;2022-11-12T08:20:58;16.93;;;10.27;;
5989;SDS011;14149;53.562;10.032;2022-11-12T08:23:25;18.00;;;10.40;;
5989;SDS011;14149;53.562;10.032;2022-11-12T08:25:51;16.57;;;9.10;;
5989;SDS011;14149;53.562;10.032;2022-11-12T08:28:17;15.67;;;8.63;;
5989;SDS011;14149;53.562;10.032;2022-11-12T08:30:43;14.57;;;9.10;;
5989;SDS011;14149;53.562;10.032;2022-11-12T08:33:09;14.77;;;8.80;;
5989;SDS011;14149;53.562;10.032;2022-11-12T08:35:36;19.63;;;9.57;;
5989;SDS011;14149;53.562;10.032;2022-11-12T08:38:03;14.13;;;8.93;;
5989;SDS011;14149;53.562;10.032;2022-11-12T08:40:34;16.37;;;9.00;;
5989;SDS011;14149;53.562;10.032;2022-11-12T08:43:04;13.87;;;8.83;;
5989;SDS011;14149;53.562;10.032;2022-11-12T08:45:31;15.80;;;8.80;;
5989;SDS011;14149;53.562;10.032;2022-11-12T08:47:58;12.97;;;8.23;;
5989;SDS011;14149;53.562;10.032;2022-11-12T08:50:25;14.33;;;8.43;;
5989;SDS011;14149;53.562;10.032;2022-11-12T08:52:51;15.70;;;8.23;;
5989;SDS011;14149;53.562;10.032;2022-11-12T08:55:17;16.03;;;9.20;;
5989;SDS011;14149;53.562;10.032;2022-11-12T08:57:43;17.17;;;8.83;;
5989;SDS011;14149;53.562;10.032;2022-11-12T09:00:10;12.80;;;8.00;;
5989;SDS011;14149;53.562;10.032;2022-11-12T09:02:37;15.43;;;8.73;;
5989;SDS011;14149;53.562;10.032;2022-11-12T09:05:03;17.90;;;8.70;;
5989;SDS011;14149;53.562;10.032;2022-11-12T09:07:30;18.20;;;8.33;;
5989;SDS011;14149;53.562;10.032;2022-11-12T09:09:56;15.37;;;8.40;;
5989;SDS011;14149;53.562;10.032;2022-11-12T09:12:22;14.13;;;8.30;;
5989;SDS011;14149;53.562;10.032;2022-11-12T09:14:49;17.17;;;8.73;;
5989;SDS011;14149;53.562;10.032;2022-11-12T09:17:15;18.90;;;8.80;;
5989;SDS011;14149;53.562;10.032;2022-11-12T09:19:41;14.90;;;9.07;;
5989;SDS011;14149;53.562;10.032;2022-11-12T09:22:07;19.10;;;10.23;;
5989;SDS011;14149;53.562;10.032;2022-11-12T09:24:33;11.83;;;8.07;;
5989;SDS011;14149;53.562;10.032;2022-11-12T09:26:59;20.43;;;10.23;;
5989;SDS011;14149;53.562;10.032;2022-11-12T09:29:25;14.67;;;8.80;;
5989;SDS011;14149;53.562;10.032;2022-11-12T09:31:51;16.20;;;9.77;;
5989;SDS011;14149;53.562;10.032;2022-11-12T09:34:18;15.60;;;9.33;;
5989;SDS011;14149;53.562;10.032;2022-11-12T09:36:44;21.07;;;9.97;;
5989;SDS011;14149;53.562;10.032;2022-11-12T09:39:10;14.80;;;9.43;;
5989;SDS011;14149;53.562;10.032;2022-11-12T09:41:36;14.70;;;9.93;;
5989;SDS011;14149;53.562;10.032;2022-11-12T09:44:04;18.60;;;10.00;;
5989;SDS011;14149;53.562;10.032;2022-11-12T09:52:20;14.27;;;9.60;;
5989;SDS011;14149;53.562;10.032;2022-11-12T09:54:49;19.93;;;10.77;;
5989;SDS011;14149;53.562;10.032;2022-11-12T09:57:17;20.13;;;11.77;;
5989;SDS011;14149;53.562;10.032;2022-11-12T09:59:43;17.03;;;10.50;;
5989;SDS011;14149;53.562;10.032;2022-11-12T10:07:36;16.93;;;9.53;;
5989;SDS011;14149;53.562;10.032;2022-11-12T10:23:10;17.00;;;9.47;;
5989;SDS011;14149;53.562;10.032;2022-11-12T10:25:38;18.73;;;10.60;;
5989;SDS011;14149;53.562;10.032;2022-11-12T10:28:25;16.87;;;8.93;;
5989;SDS011;14149;53.562;10.032;2022-11-12T10:30:56;14.53;;;8.80;;
5989;SDS011;14149;53.562;10.032;2022-11-12T10:33:23;16.70;;;8.83;;
5989;SDS011;14149;53.562;10.032;2022-11-12T10:35:49;18.27;;;8.97;;
5989;SDS011;14149;53.562;10.032;2022-11-12T10:38:17;18.13;;;9.03;;
5989;SDS011;14149;53.562;10.032;2022-11-12T10:40:45;16.33;;;9.40;;
5989;SDS011;14149;53.562;10.032;2022-11-12T10:45:41;15.03;;;8.90;;
5989;SDS011;14149;53.562;10.032;2022-11-12T10:48:21;18.90;;;9.53;;
5989;SDS011;14149;53.562;10.032;2022-11-12T10:50:48;16.00;;;9.70;;
5989;SDS011;14149;53.562;10.032;2022-11-12T10:53:16;19.23;;;9.40;;
5989;SDS011;14149;53.562;10.032;2022-11-12T10:55:54;19.03;;;10.60;;
5989;SDS011;14149;53.562;10.032;2022-11-12T10:58:20;20.83;;;11.47;;
5989;SDS011;14149;53.562;10.032;2022-11-12T11:01:00;15.23;;;9.13;;
5989;SDS011;14149;53.562;10.032;2022-11-12T11:05:57;16.00;;;9.00;;
5989;SDS011;14149;53.562;10.032;2022-11-12T11:08:31;22.50;;;14.27;;
5989;SDS011;14149;53.562;10.032;2022-11-12T11:11:39;19.60;;;9.73;;
5989;SDS011;14149;53.562;10.032;2022-11-12T11:13:50;16.93;;;8.73;;
5989;SDS011;14149;53.562;10.032;2022-11-12T11:16:18;20.63;;;9.50;;
5989;SDS011;14149;53.562;10.032;2022-11-12T11:18:45;17.40;;;9.20;;
5989;SDS011;14149;53.562;10.032;2022-11-12T11:31:51;18.03;;;10.10;;
5989;SDS011;14149;53.562;10.032;2022-11-12T11:34:32;18.47;;;9.00;;
5989;SDS011;14149;53.562;10.032;2022-11-12T11:39:34;18.50;;;9.20;;
5989;SDS011;14149;53.562;10.032;2022-11-12T11:52:52;18.77;;;10.70;;
5989;SDS011;14149;53.562;10.032;2022-11-12T11:58:06;24.40;;;13.67;;
5989;SDS011;14149;53.562;10.032;2022-11-12T12:03:36;19.80;;;9.43;;
5989;SDS011;14149;53.562;10.032;2022-11-12T12:11:40;17.80;;;10.37;;
5989;SDS011;14149;53.562;10.032;2022-11-12T12:21:43;20.33;;;11.77;;
5989;SDS011;14149;53.562;10.032;2022-11-12T12:25:12;21.07;;;12.10;;
5989;SDS011;14149;53.562;10.032;2022-11-12T12:27:10;22.93;;;11.47;;
5989;SDS011;14149;53.562;10.032;2022-11-12T12:29:54;28.10;;;11.80;;
5989;SDS011;14149;53.562;10.032;2022-11-12T12:34:55;22.23;;;11.67;;
5989;SDS011;14149;53.562;10.032;2022-11-12T12:38:09;18.47;;;10.77;;
5989;SDS011;14149;53.562;10.032;2022-11-12T12:40:15;19.40;;;10.80;;
5989;SDS011;14149;53.562;10.032;2022-11-12T12:42:47;20.57;;;10.90;;
5989;SDS011;14149;53.562;10.032;2022-11-12T12:45:29;19.30;;;10.13;;
5989;SDS011;14149;53.562;10.032;2022-11-12T12:47:57;18.97;;;9.70;;
5989;SDS011;14149;53.562;10.032;2022-11-12T12:50:23;17.90;;;9.30;;
5989;SDS011;14149;53.562;10.032;2022-11-12T12:53:01;19.73;;;9.33;;
5989;SDS011;14149;53.562;10.032;2022-11-12T12:58:00;15.87;;;8.90;;
5989;SDS011;14149;53.562;10.032;2022-11-12T13:00:27;17.43;;;9.70;;
5989;SDS011;14149;53.562;10.032;2022-11-12T13:02:56;18.23;;;8.40;;
5989;SDS011;14149;53.562;10.032;2022-11-12T13:05:29;19.43;;;9.47;;
5989;SDS011;14149;53.562;10.032;2022-11-12T13:08:04;17.77;;;9.63;;
5989;SDS011;14149;53.562;10.032;2022-11-12T13:15:48;20.37;;;9.50;;
5989;SDS011;14149;53.562;10.032;2022-11-12T13:21:06;17.43;;;9.23;;
5989;SDS011;14149;53.562;10.032;2022-11-12T13:23:41;18.93;;;8.70;;
5989;SDS011;14149;53.562;10.032;2022-11-12T13:26:43;15.27;;;8.60;;
5989;SDS011;14149;53.562;10.032;2022-11-12T13:34:39;17.67;;;9.00;;
5989;SDS011;14149;53.562;10.032;2022-11-12T13:37:05;17.83;;;9.20;;
5989;SDS011;14149;53.562;10.032;2022-11-12T13:39:31;16.70;;;8.93;;
5989;SDS011;14149;53.562;10.032;2022-11-12T13:42:01;17.93;;;9.77;;
5989;SDS011;14149;53.562;10.032;2022-11-12T13:44:52;18.40;;;9.23;;
5989;SDS011;14149;53.562;10.032;2022-11-12T13:47:19;16.67;;;10.60;;
5989;SDS011;14149;53.562;10.032;2022-11-12T13:49:48;17.60;;;9.97;;
5989;SDS011;14149;53.562;10.032;2022-11-12T13:52:15;19.93;;;10.37;;
5989;SDS011;14149;53.562;10.032;2022-11-12T13:54:43;16.43;;;8.80;;
5989;SDS011;14149;53.562;10.032;2022-11-12T13:59:47;14.07;;;9.47;;
5989;SDS011;14149;53.562;10.032;2022-11-12T14:02:25;15.07;;;9.20;;
5989;SDS011;14149;53.562;10.032;2022-11-12T14:04:51;14.40;;;8.57;;
5989;SDS011;14149;53.562;10.032;2022-11-12T14:20:27;14.70;;;8.73;;
5989;SDS011;14149;53.562;10.032;2022-11-12T14:22:55;16.30;;;9.33;;
5989;SDS011;14149;53.562;10.032;2022-11-12T14:25:24;13.63;;;8.20;;
5989;SDS011;14149;53.562;10.032;2022-11-12T14:27:54;14.23;;;8.23;;
5989;SDS011;14149;53.562;10.032;2022-11-12T14:32:51;12.30;;;8.00;;
5989;SDS011;14149;53.562;10.032;2022-11-12T14:37:50;13.40;;;8.60;;
5989;SDS011;14149;53.562;10.032;2022-11-12T14:40:19;16.63;;;9.43;;
5989;SDS011;14149;53.562;10.032;2022-11-12T14:42:45;15.03;;;9.07;;
5989;SDS011;14149;53.562;10.032;2022-11-12T14:45:15;13.33;;;8.93;;
5989;SDS011;14149;53.562;10.032;2022-11-12T14:47:43;16.50;;;9.70;;
5989;SDS011;14149;53.562;10.032;2022-11-12T14:50:16;19.43;;;10.87;;
5989;SDS011;14149;53.562;10.032;2022-11-12T14:52:45;18.20;;;10.80;;
5989;SDS011;14149;53.562;10.032;2022-11-12T14:55:16;16.57;;;9.43;;
5989;SDS011;14149;53.562;10.032;2022-11-12T14:57:43;18.57;;;9.77;;
5989;SDS011;14149;53.562;10.032;2022-11-12T15:00:20;21.93;;;10.00;;
5989;SDS011;14149;53.562;10.032;2022-11-12T15:02:46;17.70;;;9.93;;
5989;SDS011;14149;53.562;10.032;2022-11-12T15:05:16;18.80;;;10.00;;
5989;SDS011;14149;53.562;10.032;2022-11-12T15:07:50;15.43;;;10.10;;
5989;SDS011;14149;53.562;10.032;2022-11-12T15:15:52;17.57;;;10.33;;
5989;SDS011;14149;53.562;10.032;2022-11-12T15:18:20;14.93;;;9.10;;
5989;SDS011;14149;53.562;10.032;2022-11-12T15:21:05;25.13;;;11.63;;
5989;SDS011;14149;53.562;10.032;2022-11-12T15:23:32;18.00;;;10.27;;
5989;SDS011;14149;53.562;10.032;2022-11-12T15:25:59;18.63;;;11.03;;
5989;SDS011;14149;53.562;10.032;2022-11-12T15:28:25;15.10;;;9.50;;
5989;SDS011;14149;53.562;10.032;2022-11-12T15:31:14;17.03;;;9.63;;
5989;SDS011;14149;53.562;10.032;2022-11-12T15:33:41;19.67;;;9.20;;
5989;SDS011;14149;53.562;10.032;2022-11-12T15:36:17;20.07;;;10.43;;
5989;SDS011;14149;53.562;10.032;2022-11-12T15:38:47;18.00;;;10.23;;
5989;SDS011;14149;53.562;10.032;2022-11-12T15:41:21;23.90;;;10.50;;
5989;SDS011;14149;53.562;10.032;2022-11-12T15:43:48;19.70;;;11.20;;
5989;SDS011;14149;53.562;10.032;2022-11-12T15:46:14;14.83;;;9.80;;
5989;SDS011;14149;53.562;10.032;2022-11-12T15:48:40;19.83;;;10.87;;
5989;SDS011;14149;53.562;10.032;2022-11-12T15:51:09;19.80;;;11.27;;
5989;SDS011;14149;53.562;10.032;2022-11-12T15:53:36;18.20;;;10.10;;
5989;SDS011;14149;53.562;10.032;2022-11-12T15:56:02;15.90;;;9.90;;
5989;SDS011;14149;53.562;10.032;2022-11-12T15:58:34;20.80;;;11.30;;
5989;SDS011;14149;53.562;10.032;2022-11-12T16:01:00;19.93;;;12.23;;
5989;SDS011;14149;53.562;10.032;2022-11-12T16:03:27;20.17;;;10.90;;
5989;SDS011;14149;53.562;10.032;2022-11-12T16:05:55;20.10;;;10.97;;
5989;SDS011;14149;53.562;10.032;2022-11-12T16:08:21;18.83;;;11.80;;
5989;SDS011;14149;53.562;10.032;2022-11-12T16:10:47;19.40;;;10.70;;
5989;SDS011;14149;53.562;10.032;2022-11-12T16:13:14;16.37;;;11.20;;
5989;SDS011;14149;53.562;10.032;2022-11-12T16:15:41;22.53;;;11.13;;
5989;SDS011;14149;53.562;10.032;2022-11-12T16:18:10;26.33;;;13.07;;
5989;SDS011;14149;53.562;10.032;2022-11-12T16:20:37;18.83;;;10.87;;
5989;SDS011;14149;53.562;10.032;2022-11-12T16:23:03;30.10;;;15.83;;
5989;SDS011;14149;53.562;10.032;2022-11-12T16:25:30;23.20;;;13.23;;
5989;SDS011;14149;53.562;10.032;2022-11-12T16:27:57;27.17;;;14.27;;
5989;SDS011;14149;53.562;10.032;2022-11-12T16:30:24;26.47;;;12.60;;
5989;SDS011;14149;53.562;10.032;2022-11-12T16:32:51;23.93;;;12.00;;